Pagrindinis puslapis
METAR-TAF:

METAR-TAF

Oro uostai :

Abilene, Teksasas, Jungtinės Amerikos Valstijos

platuma: 32-25-12N, ilguma: 099-51-25W, Aukštis: 545 m

Dabartinis oras

Ataskaita buvo paskelbta 9 minutes, ne 14:56 UTC
Vėjas 4 kt iš Pietryčių
Temperatūra 28°C
Drėgmė 45%
Slėgis 1016 hPa
Matomumas: 16.1 km
Giedras dangus

METAR: KDYS 191456Z AUTO 14004KT 10SM CLR 28/15 A3001 RMK AO2 SLP118 T02810147 53005 $

Laikas: 10:05 (15:05 UTC)

Prognozė

Ataskaita buvo paskelbta 3 valandos ir 5 minutes, ne 12:00 UTC
Prognozė galioja nuo 19 metu 12 UTC su 20 metu 18 UTC
Vėjas 6 kt nuo kintamojo kryptimis
Matomumas 10 km arba daugiau
Giedras dangus
Tapsmas
nuo 20 metu 12 UTC su 20 metu 13 UTC
Vėjas 12 kt iš Pietų/Pietvakarių su gūsio iki 18 kt
Matomumas 10 km arba daugiau
Išsisklaidę debesys ne aukštis 12000 ft

TAF: KDYS 191200Z 1912/2018 VRB06KT 9999 SKC QNH2981INS BECMG 2012/2013 20012G18KT 9999 SCT120 QNH2979INS TX34/1921Z TN23/2010Z

Orai ataskaitas ir orų prognozės (METAR, TAF).

turimą stotys yra geltonos ir raudonos taškus žemėlapyje.

Perkelti pele per norėdami pamatyti stoties vardą.

Tada spustelėkite, norėdami matyti oro stebėjimo ir prognozės.

Norėdami pakeisti žemėlapį: spustelėkite ant žalios mygtukų su juodo kryžiaus žemyn,; žalią mygtuką su brūkšneliu, jei norite nutolinti; arba žalių rodyklių gretimoms žemėlapius.


METAR-TAF: